sensor_id;sensor_type;location;lat;lon;timestamp;temperature;humidity
8269;DHT22;4174;48.304;16.364;2023-08-20T00:02:30;23.10;99.90
8269;DHT22;4174;48.304;16.364;2023-08-20T00:08:33;23.10;99.90
8269;DHT22;4174;48.304;16.364;2023-08-20T00:20:53;23.10;99.90
8269;DHT22;4174;48.304;16.364;2023-08-20T00:26:56;23.10;99.90
8269;DHT22;4174;48.304;16.364;2023-08-20T00:32:59;23.10;99.90
8269;DHT22;4174;48.304;16.364;2023-08-20T00:39:03;23.20;99.90
8269;DHT22;4174;48.304;16.364;2023-08-20T00:45:07;23.20;99.90
8269;DHT22;4174;48.304;16.364;2023-08-20T00:51:11;23.10;99.90
8269;DHT22;4174;48.304;16.364;2023-08-20T00:57:14;23.10;99.90
8269;DHT22;4174;48.304;16.364;2023-08-20T01:03:17;23.10;99.90
8269;DHT22;4174;48.304;16.364;2023-08-20T01:15:52;23.00;99.90
8269;DHT22;4174;48.304;16.364;2023-08-20T01:22:05;22.90;99.90
8269;DHT22;4174;48.304;16.364;2023-08-20T01:28:29;23.00;99.90
8269;DHT22;4174;48.304;16.364;2023-08-20T01:34:30;23.10;99.90
8269;DHT22;4174;48.304;16.364;2023-08-20T01:40:34;23.00;99.90
8269;DHT22;4174;48.304;16.364;2023-08-20T01:46:37;22.90;99.90
8269;DHT22;4174;48.304;16.364;2023-08-20T01:52:41;23.10;99.90
8269;DHT22;4174;48.304;16.364;2023-08-20T01:58:44;22.90;99.90
8269;DHT22;4174;48.304;16.364;2023-08-20T02:04:48;22.90;99.90
8269;DHT22;4174;48.304;16.364;2023-08-20T02:10:59;22.80;99.90
8269;DHT22;4174;48.304;16.364;2023-08-20T02:16:54;22.70;99.90
8269;DHT22;4174;48.304;16.364;2023-08-20T02:22:58;22.60;99.90
8269;DHT22;4174;48.304;16.364;2023-08-20T02:29:01;22.70;99.90
8269;DHT22;4174;48.304;16.364;2023-08-20T02:35:05;22.70;99.90
8269;DHT22;4174;48.304;16.364;2023-08-20T02:41:09;22.50;99.90
8269;DHT22;4174;48.304;16.364;2023-08-20T02:47:12;22.50;99.90
8269;DHT22;4174;48.304;16.364;2023-08-20T02:53:16;22.50;99.90
8269;DHT22;4174;48.304;16.364;2023-08-20T02:59:20;22.40;99.90
8269;DHT22;4174;48.304;16.364;2023-08-20T03:05:24;22.30;99.90
8269;DHT22;4174;48.304;16.364;2023-08-20T03:11:27;22.20;99.90
8269;DHT22;4174;48.304;16.364;2023-08-20T03:17:31;22.20;99.90
8269;DHT22;4174;48.304;16.364;2023-08-20T03:23:35;22.30;99.90
8269;DHT22;4174;48.304;16.364;2023-08-20T03:29:38;22.20;99.90
8269;DHT22;4174;48.304;16.364;2023-08-20T03:35:45;22.00;99.90
8269;DHT22;4174;48.304;16.364;2023-08-20T03:41:47;22.00;99.90
8269;DHT22;4174;48.304;16.364;2023-08-20T03:47:50;22.00;99.90
8269;DHT22;4174;48.304;16.364;2023-08-20T03:53:54;21.90;99.90
8269;DHT22;4174;48.304;16.364;2023-08-20T03:59:58;22.00;99.90
8269;DHT22;4174;48.304;16.364;2023-08-20T04:06:02;22.00;99.90
8269;DHT22;4174;48.304;16.364;2023-08-20T04:12:07;22.00;99.90
8269;DHT22;4174;48.304;16.364;2023-08-20T04:18:11;21.80;99.90
8269;DHT22;4174;48.304;16.364;2023-08-20T04:24:15;21.80;99.90
8269;DHT22;4174;48.304;16.364;2023-08-20T04:30:19;21.90;99.90
8269;DHT22;4174;48.304;16.364;2023-08-20T04:36:23;21.90;99.90
8269;DHT22;4174;48.304;16.364;2023-08-20T04:42:27;22.00;99.90
8269;DHT22;4174;48.304;16.364;2023-08-20T04:48:31;22.10;99.90
8269;DHT22;4174;48.304;16.364;2023-08-20T04:54:34;22.10;99.90
8269;DHT22;4174;48.304;16.364;2023-08-20T05:00:38;22.20;99.90
8269;DHT22;4174;48.304;16.364;2023-08-20T05:06:42;22.30;99.90
8269;DHT22;4174;48.304;16.364;2023-08-20T05:12:45;22.30;99.90
8269;DHT22;4174;48.304;16.364;2023-08-20T05:18:48;22.50;99.90
8269;DHT22;4174;48.304;16.364;2023-08-20T05:24:52;22.70;99.90
8269;DHT22;4174;48.304;16.364;2023-08-20T05:30:56;23.10;99.90
8269;DHT22;4174;48.304;16.364;2023-08-20T05:36:59;23.50;99.90
8269;DHT22;4174;48.304;16.364;2023-08-20T05:43:02;23.70;99.90
8269;DHT22;4174;48.304;16.364;2023-08-20T05:49:06;24.30;99.90
8269;DHT22;4174;48.304;16.364;2023-08-20T05:55:08;24.90;99.90
8269;DHT22;4174;48.304;16.364;2023-08-20T06:01:11;25.40;99.90
8269;DHT22;4174;48.304;16.364;2023-08-20T06:07:15;25.80;99.90
8269;DHT22;4174;48.304;16.364;2023-08-20T06:13:19;26.40;99.90
8269;DHT22;4174;48.304;16.364;2023-08-20T06:19:23;26.70;99.90
8269;DHT22;4174;48.304;16.364;2023-08-20T06:25:25;27.00;99.90
8269;DHT22;4174;48.304;16.364;2023-08-20T06:31:29;27.70;99.90
8269;DHT22;4174;48.304;16.364;2023-08-20T06:37:33;28.40;99.90
8269;DHT22;4174;48.304;16.364;2023-08-20T06:43:36;29.20;99.90
8269;DHT22;4174;48.304;16.364;2023-08-20T06:49:40;30.20;99.90
8269;DHT22;4174;48.304;16.364;2023-08-20T06:55:43;31.10;99.90
8269;DHT22;4174;48.304;16.364;2023-08-20T07:01:47;32.10;99.90
8269;DHT22;4174;48.304;16.364;2023-08-20T07:07:51;33.10;99.90
8269;DHT22;4174;48.304;16.364;2023-08-20T07:13:54;33.90;99.90
8269;DHT22;4174;48.304;16.364;2023-08-20T07:19:58;34.40;99.90
8269;DHT22;4174;48.304;16.364;2023-08-20T07:26:05;34.70;99.50
8269;DHT22;4174;48.304;16.364;2023-08-20T07:32:08;34.70;98.30
8269;DHT22;4174;48.304;16.364;2023-08-20T07:38:11;34.70;98.20
8269;DHT22;4174;48.304;16.364;2023-08-20T07:44:15;34.60;96.50
8269;DHT22;4174;48.304;16.364;2023-08-20T07:50:20;34.80;97.50
8269;DHT22;4174;48.304;16.364;2023-08-20T07:56:23;34.70;97.10
8269;DHT22;4174;48.304;16.364;2023-08-20T08:02:27;34.90;96.00
8269;DHT22;4174;48.304;16.364;2023-08-20T08:08:32;35.80;95.40
8269;DHT22;4174;48.304;16.364;2023-08-20T08:14:35;36.30;92.40
8269;DHT22;4174;48.304;16.364;2023-08-20T08:20:39;36.70;91.90
8269;DHT22;4174;48.304;16.364;2023-08-20T08:26:42;37.10;91.40
8269;DHT22;4174;48.304;16.364;2023-08-20T08:32:46;37.10;86.20
8269;DHT22;4174;48.304;16.364;2023-08-20T08:38:51;37.10;86.30
8269;DHT22;4174;48.304;16.364;2023-08-20T08:44:54;38.00;86.30
8269;DHT22;4174;48.304;16.364;2023-08-20T08:50:57;38.50;86.10
8269;DHT22;4174;48.304;16.364;2023-08-20T08:57:00;38.60;82.40
8269;DHT22;4174;48.304;16.364;2023-08-20T09:03:04;38.30;75.30
8269;DHT22;4174;48.304;16.364;2023-08-20T09:09:08;38.60;75.00
8269;DHT22;4174;48.304;16.364;2023-08-20T09:15:11;38.70;76.00
8269;DHT22;4174;48.304;16.364;2023-08-20T09:21:14;39.00;76.90
8269;DHT22;4174;48.304;16.364;2023-08-20T09:27:18;38.90;74.20
8269;DHT22;4174;48.304;16.364;2023-08-20T09:33:22;39.10;74.90
8269;DHT22;4174;48.304;16.364;2023-08-20T09:39:26;39.60;77.70
8269;DHT22;4174;48.304;16.364;2023-08-20T09:45:30;39.50;71.00
8269;DHT22;4174;48.304;16.364;2023-08-20T09:51:33;39.50;70.90
8269;DHT22;4174;48.304;16.364;2023-08-20T09:57:37;39.80;67.10
8269;DHT22;4174;48.304;16.364;2023-08-20T10:03:39;39.90;59.90
8269;DHT22;4174;48.304;16.364;2023-08-20T10:09:42;40.10;68.90
8269;DHT22;4174;48.304;16.364;2023-08-20T10:15:44;40.40;63.50
8269;DHT22;4174;48.304;16.364;2023-08-20T10:21:47;40.50;63.70
8269;DHT22;4174;48.304;16.364;2023-08-20T10:27:50;40.40;58.10
8269;DHT22;4174;48.304;16.364;2023-08-20T10:33:55;40.30;57.40
8269;DHT22;4174;48.304;16.364;2023-08-20T10:39:58;40.50;64.10
8269;DHT22;4174;48.304;16.364;2023-08-20T10:46:07;40.60;58.30
8269;DHT22;4174;48.304;16.364;2023-08-20T10:52:18;41.00;60.40
8269;DHT22;4174;48.304;16.364;2023-08-20T10:58:23;40.50;55.50
8269;DHT22;4174;48.304;16.364;2023-08-20T11:04:24;40.50;55.80
8269;DHT22;4174;48.304;16.364;2023-08-20T11:10:27;40.50;55.50
8269;DHT22;4174;48.304;16.364;2023-08-20T11:16:30;40.50;56.90
8269;DHT22;4174;48.304;16.364;2023-08-20T11:22:33;40.70;57.30
8269;DHT22;4174;48.304;16.364;2023-08-20T11:28:37;40.90;53.10
8269;DHT22;4174;48.304;16.364;2023-08-20T11:34:40;40.60;59.50
8269;DHT22;4174;48.304;16.364;2023-08-20T11:40:44;40.50;51.10
8269;DHT22;4174;48.304;16.364;2023-08-20T11:46:47;40.10;55.20
8269;DHT22;4174;48.304;16.364;2023-08-20T11:52:51;40.30;54.30
8269;DHT22;4174;48.304;16.364;2023-08-20T11:58:58;39.70;52.80
8269;DHT22;4174;48.304;16.364;2023-08-20T12:04:56;40.40;54.30
8269;DHT22;4174;48.304;16.364;2023-08-20T12:10:59;40.40;54.10
8269;DHT22;4174;48.304;16.364;2023-08-20T12:17:02;40.30;52.50
8269;DHT22;4174;48.304;16.364;2023-08-20T12:23:06;39.90;55.30
8269;DHT22;4174;48.304;16.364;2023-08-20T12:29:08;39.90;53.60
8269;DHT22;4174;48.304;16.364;2023-08-20T12:35:12;40.00;53.20
8269;DHT22;4174;48.304;16.364;2023-08-20T12:41:15;40.00;53.30
8269;DHT22;4174;48.304;16.364;2023-08-20T12:47:19;40.40;55.30
8269;DHT22;4174;48.304;16.364;2023-08-20T12:53:23;40.30;55.20
8269;DHT22;4174;48.304;16.364;2023-08-20T12:59:27;39.90;53.20
8269;DHT22;4174;48.304;16.364;2023-08-20T13:05:31;39.90;52.60
8269;DHT22;4174;48.304;16.364;2023-08-20T13:11:36;39.20;53.30
8269;DHT22;4174;48.304;16.364;2023-08-20T13:17:39;39.30;54.10
8269;DHT22;4174;48.304;16.364;2023-08-20T13:23:43;39.30;53.50
8269;DHT22;4174;48.304;16.364;2023-08-20T13:29:48;38.90;53.30
8269;DHT22;4174;48.304;16.364;2023-08-20T13:35:52;38.90;53.30
8269;DHT22;4174;48.304;16.364;2023-08-20T13:41:56;38.70;52.50
8269;DHT22;4174;48.304;16.364;2023-08-20T13:48:00;38.60;53.70
8269;DHT22;4174;48.304;16.364;2023-08-20T13:54:03;38.70;53.20
8269;DHT22;4174;48.304;16.364;2023-08-20T14:00:08;38.50;50.60
8269;DHT22;4174;48.304;16.364;2023-08-20T14:06:11;38.30;54.30
8269;DHT22;4174;48.304;16.364;2023-08-20T14:12:15;38.30;52.90
8269;DHT22;4174;48.304;16.364;2023-08-20T14:18:19;38.00;54.80
8269;DHT22;4174;48.304;16.364;2023-08-20T14:24:23;37.50;47.70
8269;DHT22;4174;48.304;16.364;2023-08-20T14:30:26;37.50;47.60
8269;DHT22;4174;48.304;16.364;2023-08-20T14:36:30;37.20;47.70
8269;DHT22;4174;48.304;16.364;2023-08-20T14:42:33;36.10;48.70
8269;DHT22;4174;48.304;16.364;2023-08-20T14:48:35;35.60;48.10
8269;DHT22;4174;48.304;16.364;2023-08-20T14:54:40;35.30;49.30
8269;DHT22;4174;48.304;16.364;2023-08-20T15:00:44;35.10;53.10
8269;DHT22;4174;48.304;16.364;2023-08-20T15:06:49;35.00;59.30
8269;DHT22;4174;48.304;16.364;2023-08-20T15:12:53;34.90;60.10
8269;DHT22;4174;48.304;16.364;2023-08-20T15:18:57;34.90;60.10
8269;DHT22;4174;48.304;16.364;2023-08-20T15:25:01;34.80;60.70
8269;DHT22;4174;48.304;16.364;2023-08-20T15:31:04;34.60;62.10
8269;DHT22;4174;48.304;16.364;2023-08-20T15:37:09;34.60;63.20
8269;DHT22;4174;48.304;16.364;2023-08-20T15:43:12;34.40;61.20
8269;DHT22;4174;48.304;16.364;2023-08-20T15:49:16;34.20;64.00
8269;DHT22;4174;48.304;16.364;2023-08-20T15:55:20;33.90;68.00
8269;DHT22;4174;48.304;16.364;2023-08-20T16:01:24;33.90;69.30
8269;DHT22;4174;48.304;16.364;2023-08-20T16:07:27;33.90;65.60
8269;DHT22;4174;48.304;16.364;2023-08-20T16:13:31;33.90;61.20
8269;DHT22;4174;48.304;16.364;2023-08-20T16:19:34;33.90;63.90
8269;DHT22;4174;48.304;16.364;2023-08-20T16:25:38;33.60;65.50
8269;DHT22;4174;48.304;16.364;2023-08-20T16:31:43;33.40;69.10
8269;DHT22;4174;48.304;16.364;2023-08-20T16:37:47;33.30;68.90
8269;DHT22;4174;48.304;16.364;2023-08-20T16:43:51;33.30;67.40
8269;DHT22;4174;48.304;16.364;2023-08-20T16:49:55;33.10;84.00
8269;DHT22;4174;48.304;16.364;2023-08-20T16:55:58;33.10;84.70
8269;DHT22;4174;48.304;16.364;2023-08-20T17:02:02;32.70;82.60
8269;DHT22;4174;48.304;16.364;2023-08-20T17:08:05;32.60;81.50
8269;DHT22;4174;48.304;16.364;2023-08-20T17:14:09;32.30;86.60
8269;DHT22;4174;48.304;16.364;2023-08-20T17:20:12;32.10;92.70
8269;DHT22;4174;48.304;16.364;2023-08-20T17:26:16;31.80;93.70
8269;DHT22;4174;48.304;16.364;2023-08-20T17:32:19;31.60;99.80
8269;DHT22;4174;48.304;16.364;2023-08-20T17:38:23;31.50;99.90
8269;DHT22;4174;48.304;16.364;2023-08-20T17:44:27;31.30;99.90
8269;DHT22;4174;48.304;16.364;2023-08-20T17:50:35;31.00;99.90
8269;DHT22;4174;48.304;16.364;2023-08-20T17:56:38;30.80;99.90
8269;DHT22;4174;48.304;16.364;2023-08-20T18:02:41;30.60;99.90
8269;DHT22;4174;48.304;16.364;2023-08-20T18:08:44;30.40;99.90
8269;DHT22;4174;48.304;16.364;2023-08-20T18:14:46;30.10;99.90
8269;DHT22;4174;48.304;16.364;2023-08-20T18:20:51;29.90;99.90
8269;DHT22;4174;48.304;16.364;2023-08-20T18:26:55;29.70;99.90
8269;DHT22;4174;48.304;16.364;2023-08-20T18:32:59;29.30;99.90
8269;DHT22;4174;48.304;16.364;2023-08-20T18:39:03;29.30;99.90
8269;DHT22;4174;48.304;16.364;2023-08-20T18:45:07;28.90;99.90
8269;DHT22;4174;48.304;16.364;2023-08-20T18:51:11;28.70;99.90
8269;DHT22;4174;48.304;16.364;2023-08-20T18:57:13;28.60;99.90
8269;DHT22;4174;48.304;16.364;2023-08-20T19:03:17;28.40;99.90
8269;DHT22;4174;48.304;16.364;2023-08-20T19:09:21;28.30;99.90
8269;DHT22;4174;48.304;16.364;2023-08-20T19:15:24;28.10;99.90
8269;DHT22;4174;48.304;16.364;2023-08-20T19:21:29;27.90;99.90
8269;DHT22;4174;48.304;16.364;2023-08-20T19:27:32;27.80;99.90
8269;DHT22;4174;48.304;16.364;2023-08-20T19:33:36;27.50;99.90
8269;DHT22;4174;48.304;16.364;2023-08-20T19:39:39;27.50;99.90
8269;DHT22;4174;48.304;16.364;2023-08-20T19:45:43;27.40;99.90
8269;DHT22;4174;48.304;16.364;2023-08-20T19:51:46;27.20;99.90
8269;DHT22;4174;48.304;16.364;2023-08-20T19:57:50;27.00;99.90
8269;DHT22;4174;48.304;16.364;2023-08-20T20:03:54;26.90;99.90
8269;DHT22;4174;48.304;16.364;2023-08-20T20:09:57;26.80;99.90
8269;DHT22;4174;48.304;16.364;2023-08-20T20:16:01;26.70;99.90
8269;DHT22;4174;48.304;16.364;2023-08-20T20:22:04;26.70;99.90
8269;DHT22;4174;48.304;16.364;2023-08-20T20:28:08;26.40;99.90
8269;DHT22;4174;48.304;16.364;2023-08-20T20:34:10;26.30;99.90
8269;DHT22;4174;48.304;16.364;2023-08-20T20:40:13;26.10;99.90
8269;DHT22;4174;48.304;16.364;2023-08-20T20:46:17;26.00;99.90
8269;DHT22;4174;48.304;16.364;2023-08-20T20:52:21;25.80;99.90
8269;DHT22;4174;48.304;16.364;2023-08-20T20:58:24;25.70;99.90
8269;DHT22;4174;48.304;16.364;2023-08-20T21:04:29;25.40;99.90
8269;DHT22;4174;48.304;16.364;2023-08-20T21:10:33;25.40;99.90
8269;DHT22;4174;48.304;16.364;2023-08-20T21:16:37;25.40;99.90
8269;DHT22;4174;48.304;16.364;2023-08-20T21:22:40;25.40;99.90
8269;DHT22;4174;48.304;16.364;2023-08-20T21:28:44;25.40;99.90
8269;DHT22;4174;48.304;16.364;2023-08-20T21:34:48;25.40;99.90
8269;DHT22;4174;48.304;16.364;2023-08-20T21:40:51;25.50;99.90
8269;DHT22;4174;48.304;16.364;2023-08-20T21:46:55;25.30;99.90
8269;DHT22;4174;48.304;16.364;2023-08-20T21:52:59;25.10;99.90
8269;DHT22;4174;48.304;16.364;2023-08-20T21:59:03;25.10;99.90
8269;DHT22;4174;48.304;16.364;2023-08-20T22:05:10;25.10;99.90
8269;DHT22;4174;48.304;16.364;2023-08-20T22:11:12;25.00;99.90
8269;DHT22;4174;48.304;16.364;2023-08-20T22:17:16;24.90;99.90
8269;DHT22;4174;48.304;16.364;2023-08-20T22:23:19;24.70;99.90
8269;DHT22;4174;48.304;16.364;2023-08-20T22:29:24;24.30;99.90
8269;DHT22;4174;48.304;16.364;2023-08-20T22:35:27;24.30;99.90
8269;DHT22;4174;48.304;16.364;2023-08-20T22:41:31;24.20;99.90
8269;DHT22;4174;48.304;16.364;2023-08-20T22:47:34;24.20;99.90
8269;DHT22;4174;48.304;16.364;2023-08-20T22:53:38;24.10;99.90
8269;DHT22;4174;48.304;16.364;2023-08-20T22:59:42;24.10;99.90
8269;DHT22;4174;48.304;16.364;2023-08-20T23:05:45;24.20;99.90
8269;DHT22;4174;48.304;16.364;2023-08-20T23:11:48;24.20;99.90
8269;DHT22;4174;48.304;16.364;2023-08-20T23:17:52;24.20;99.90
8269;DHT22;4174;48.304;16.364;2023-08-20T23:23:55;24.30;99.90
8269;DHT22;4174;48.304;16.364;2023-08-20T23:29:59;24.30;99.90
8269;DHT22;4174;48.304;16.364;2023-08-20T23:36:03;24.30;99.90
8269;DHT22;4174;48.304;16.364;2023-08-20T23:42:07;24.00;99.90
8269;DHT22;4174;48.304;16.364;2023-08-20T23:48:11;24.00;99.90
8269;DHT22;4174;48.304;16.364;2023-08-20T23:54:15;23.90;99.90
